EHBK/MST METAR and TAF weather

Enter ICAO airport designator
Station Type Date Time Source
EHBK METAR 2020/02/24 23:25 UTC NOAA

EHBK 242325Z AUTO 23017KT 210V270 9999 SCT010 BKN013 OVC016 10/09 Q1005


Station Type Date Time Source
EHBK Decoded METAR 2020/02/24 23:25 UTC NOAA

Maastricht Airport Zuid Limburg, Netherlands (EHBK) 50-55N 005-47E 116M
Feb 24, 2020 - 06:25 PM EST / 2020.02.24 2325 UTC
Wind: from the SW (230 degrees) at 20 MPH (17 KT) (direction variable):0
Visibility: greater than 7 mile(s):0
Sky conditions: overcast
Temperature: 50 F (10 C)
Dew Point: 48 F (9 C)
Relative Humidity: 93%
Pressure (altimeter): 29.68 in. Hg (1005 hPa)
ob: EHBK 242325Z AUTO 23017KT 210V270 9999 SCT010 BKN013 OVC016 10/09 Q1005
cycle: 23

Station Type Date Time Source
EHBK TAF 2020/02/24 18:27 UTC NOAA

TAF EHBK 241709Z 2418/2524 23020G32KT 9999 -RA BKN020 PROB40
TEMPO 2418/2420 6000 RADZ BKN012 PROB40
TEMPO 2420/2504 6000 RA -SHRA BKN008 SCT016TCU
BECMG 2500/2503 26016KT BKN020
BECMG 2515/2518 23012KT
TEMPO 2516/2524 6000 SHRA SHRAGS SCT020CB PROB40
TEMPO 2516/2521 24018G30KT 3000 TSRAGS BKN012 SCT015CB
BECMG 2521/2524 24018G28KT PROB40
TEMPO 2521/2524 2500 SHRASN TSRAGS BKN008 SCT012CB

Example: see airport list